Time;durP1;ratioP1;P1;durP2;ratioP2;P2;SDS_P1;SDS_P2;PMS_P1;PMS_P2;Temp;Humidity;BMP_temperature;BMP_pressure;BME280_temperature;BME280_humidity;BME280_pressure;Samples;Min_cycle;Max_cycle;Signal;HPM_P1;HPM_P2
2021/09/09 00:02:42;;;;;;;5.18;2.53;;;;;;;;;;10274833;28;20053;-64
2021/09/09 00:07:45;;;;;;;7.75;3.30;;;;;;;;;;10275211;28;20414;-65
2021/09/09 00:12:44;;;;;;;6.15;2.83;;;;;;;;;;10282352;28;20080;-65
2021/09/09 00:17:44;;;;;;;4.40;2.30;;;;;;;;;;10282950;28;20095;-65
2021/09/09 00:22:43;;;;;;;3.35;2.40;;;;;;;;;;10282309;28;20053;-65
2021/09/09 00:27:43;;;;;;;9.18;2.85;;;;;;;;;;10282151;28;20053;-65
2021/09/09 00:32:41;;;;;;;4.05;2.53;;;;;;;;;;10282128;28;20053;-65
2021/09/09 00:37:40;;;;;;;3.58;2.33;;;;;;;;;;10282116;28;20091;-65
2021/09/09 00:42:39;;;;;;;5.63;2.70;;;;;;;;;;10281361;28;20045;-64
2021/09/09 00:47:40;;;;;;;9.38;3.08;;;;;;;;;;10280631;28;20049;-65
2021/09/09 00:52:40;;;;;;;5.38;2.28;;;;;;;;;;10281514;28;20049;-65
2021/09/09 00:57:38;;;;;;;6.93;2.97;;;;;;;;;;10280626;28;20076;-63
2021/09/09 01:02:37;;;;;;;4.13;2.28;;;;;;;;;;10280119;28;20426;-63
2021/09/09 01:07:37;;;;;;;5.20;2.45;;;;;;;;;;10280455;28;20441;-63
2021/09/09 01:12:35;;;;;;;6.10;2.45;;;;;;;;;;10279947;28;20055;-63
2021/09/09 01:17:34;;;;;;;6.85;2.58;;;;;;;;;;10279222;28;20091;-63
2021/09/09 01:22:32;;;;;;;7.22;4.07;;;;;;;;;;10279130;28;20088;-64
2021/09/09 01:27:32;;;;;;;5.55;2.42;;;;;;;;;;10279514;28;20045;-63
2021/09/09 01:32:30;;;;;;;3.80;2.55;;;;;;;;;;10279365;28;20507;-64
2021/09/09 01:37:29;;;;;;;4.32;2.47;;;;;;;;;;10279158;28;20080;-64
2021/09/09 01:42:27;;;;;;;5.65;2.70;;;;;;;;;;10279020;28;20099;-64
2021/09/09 01:47:27;;;;;;;6.63;2.72;;;;;;;;;;10278650;28;20037;-65
2021/09/09 01:52:25;;;;;;;4.25;2.40;;;;;;;;;;10278003;28;20100;-64
2021/09/09 01:57:23;;;;;;;6.72;2.60;;;;;;;;;;10279038;28;20091;-64
2021/09/09 02:02:22;;;;;;;8.38;3.28;;;;;;;;;;10277883;28;20065;-64
2021/09/09 02:07:22;;;;;;;8.15;2.85;;;;;;;;;;10277724;28;20529;-63
2021/09/09 02:12:20;;;;;;;4.25;2.47;;;;;;;;;;10278086;28;20053;-64
2021/09/09 02:17:18;;;;;;;6.75;2.78;;;;;;;;;;10277442;28;20513;-64
2021/09/09 02:22:17;;;;;;;4.18;2.60;;;;;;;;;;10277149;28;20076;-64
2021/09/09 02:27:17;;;;;;;6.00;3.17;;;;;;;;;;10277496;28;20049;-64
2021/09/09 02:32:16;;;;;;;3.90;2.60;;;;;;;;;;10276381;28;20037;-64
2021/09/09 02:37:14;;;;;;;4.65;2.95;;;;;;;;;;10317331;28;20048;-64
2021/09/09 02:42:12;;;;;;;8.32;6.10;;;;;;;;;;10277112;28;20080;-64
2021/09/09 02:47:12;;;;;;;5.72;3.53;;;;;;;;;;10276859;28;20454;-64
2021/09/09 02:52:10;;;;;;;9.48;3.63;;;;;;;;;;10276910;28;20078;-64
2021/09/09 02:57:08;;;;;;;6.43;4.20;;;;;;;;;;10276493;28;20077;-64
2021/09/09 03:02:07;;;;;;;5.70;4.03;;;;;;;;;;10276986;28;20063;-64
2021/09/09 03:07:09;;;;;;;7.55;5.00;;;;;;;;;;10288087;28;20037;-64
2021/09/09 03:12:08;;;;;;;11.95;4.95;;;;;;;;;;10276131;28;20068;-64
2021/09/09 03:17:06;;;;;;;10.75;4.55;;;;;;;;;;10275822;28;20091;-64
2021/09/09 03:22:05;;;;;;;9.63;4.78;;;;;;;;;;10276307;28;20053;-64
2021/09/09 03:27:05;;;;;;;10.55;4.78;;;;;;;;;;10274930;28;20049;-64
2021/09/09 03:32:03;;;;;;;7.75;5.60;;;;;;;;;;10275563;28;20072;-64
2021/09/09 03:37:02;;;;;;;10.77;5.45;;;;;;;;;;10275324;28;20080;-64
2021/09/09 03:42:00;;;;;;;11.27;6.45;;;;;;;;;;10275374;28;20060;-65
2021/09/09 03:47:00;;;;;;;7.88;4.93;;;;;;;;;;10282732;28;20468;-65
2021/09/09 03:51:58;;;;;;;9.20;4.88;;;;;;;;;;10283394;28;20057;-64
2021/09/09 03:56:56;;;;;;;8.02;4.65;;;;;;;;;;10282768;28;20069;-65
2021/09/09 04:01:55;;;;;;;9.68;5.32;;;;;;;;;;10283182;28;20083;-63
2021/09/09 04:06:55;;;;;;;6.78;4.55;;;;;;;;;;10282428;28;20064;-63
2021/09/09 04:11:53;;;;;;;12.32;4.97;;;;;;;;;;10282646;28;20053;-65
2021/09/09 04:16:52;;;;;;;6.93;4.40;;;;;;;;;;10282105;28;20048;-64
2021/09/09 04:21:50;;;;;;;11.88;5.63;;;;;;;;;;10281896;28;20088;-64
2021/09/09 04:26:50;;;;;;;10.88;4.95;;;;;;;;;;10282284;28;20063;-64
2021/09/09 04:31:48;;;;;;;13.68;4.72;;;;;;;;;;10281786;28;20056;-64
2021/09/09 04:36:47;;;;;;;50.63;40.08;;;;;;;;;;10281569;28;20041;-63
2021/09/09 04:41:45;;;;;;;21.35;10.38;;;;;;;;;;10281227;28;20076;-63
2021/09/09 04:46:45;;;;;;;15.52;9.48;;;;;;;;;;10279690;28;20037;-63
2021/09/09 04:51:43;;;;;;;13.75;9.38;;;;;;;;;;10278080;28;20076;-62
2021/09/09 04:56:41;;;;;;;16.88;6.35;;;;;;;;;;10283649;28;20041;-63
2021/09/09 05:01:40;;;;;;;13.15;6.00;;;;;;;;;;10287936;28;20049;-62
2021/09/09 05:06:40;;;;;;;13.65;6.55;;;;;;;;;;10280495;28;20041;-62
2021/09/09 05:11:41;;;;;;;14.52;5.75;;;;;;;;;;10280017;28;20080;-63
2021/09/09 05:16:39;;;;;;;12.02;5.72;;;;;;;;;;10280069;28;20491;-63
2021/09/09 05:21:38;;;;;;;10.95;6.03;;;;;;;;;;10279898;28;20083;-63
2021/09/09 05:26:37;;;;;;;9.45;5.70;;;;;;;;;;10279162;28;20048;-63
2021/09/09 05:31:36;;;;;;;15.40;10.02;;;;;;;;;;10279104;28;20418;-64
2021/09/09 05:36:34;;;;;;;12.57;6.82;;;;;;;;;;10279445;28;20052;-63
2021/09/09 05:41:35;;;;;;;7.90;5.75;;;;;;;;;;10278662;28;20072;-62
2021/09/09 05:46:36;;;;;;;16.35;7.47;;;;;;;;;;10278568;28;20041;-62
2021/09/09 05:51:35;;;;;;;7.32;4.40;;;;;;;;;;10278381;28;20426;-63
2021/09/09 05:56:33;;;;;;;11.38;5.50;;;;;;;;;;10278047;28;20103;-63
2021/09/09 06:01:32;;;;;;;12.02;4.95;;;;;;;;;;10277634;28;20473;-64
2021/09/09 06:06:32;;;;;;;13.45;5.00;;;;;;;;;;10277827;28;20077;-64
2021/09/09 06:11:30;;;;;;;10.68;5.05;;;;;;;;;;10277755;28;20502;-63
2021/09/09 06:16:29;;;;;;;7.97;4.32;;;;;;;;;;10277681;28;20064;-64
2021/09/09 06:21:27;;;;;;;13.48;4.70;;;;;;;;;;10277185;28;20076;-63
2021/09/09 06:26:27;;;;;;;7.68;3.67;;;;;;;;;;10277156;28;20052;-63
2021/09/09 06:31:28;;;;;;;9.77;4.78;;;;;;;;;;10273985;28;20071;-62
2021/09/09 06:36:29;;;;;;;8.60;4.35;;;;;;;;;;10275455;28;20041;-64
2021/09/09 06:41:29;;;;;;;5.75;3.53;;;;;;;;;;10276182;28;20479;-64
2021/09/09 06:46:27;;;;;;;12.52;4.20;;;;;;;;;;10275832;28;20052;-64
2021/09/09 06:51:26;;;;;;;6.13;3.45;;;;;;;;;;10276338;28;20045;-64
2021/09/09 06:56:25;;;;;;;10.73;4.63;;;;;;;;;;10276497;28;20049;-63
2021/09/09 07:01:25;;;;;;;29.17;6.65;;;;;;;;;;10276071;28;20080;-64
2021/09/09 07:06:24;;;;;;;18.58;7.38;;;;;;;;;;10275827;28;20081;-63
2021/09/09 07:11:22;;;;;;;29.17;9.20;;;;;;;;;;10275746;28;20068;-63
2021/09/09 07:16:20;;;;;;;20.50;7.82;;;;;;;;;;10275619;28;20494;-65
2021/09/09 07:21:20;;;;;;;17.30;6.28;;;;;;;;;;10287018;28;20076;-64
2021/09/09 07:26:18;;;;;;;15.10;6.72;;;;;;;;;;10289032;28;20044;-65
2021/09/09 07:31:17;;;;;;;24.00;8.25;;;;;;;;;;10288862;28;20082;-64
2021/09/09 07:36:15;;;;;;;14.50;5.32;;;;;;;;;;10288808;28;20052;-64
2021/09/09 07:41:15;;;;;;;12.77;4.55;;;;;;;;;;10288216;28;20502;-64
2021/09/09 07:46:13;;;;;;;8.60;4.38;;;;;;;;;;10288932;28;20426;-64
2021/09/09 07:51:14;;;;;;;19.90;5.60;;;;;;;;;;10288691;28;20044;-63
2021/09/09 07:56:13;;;;;;;21.92;9.18;;;;;;;;;;10288411;28;20051;-64
2021/09/09 08:01:12;;;;;;;20.15;6.15;;;;;;;;;;10288155;28;20072;-64
2021/09/09 08:06:11;;;;;;;14.60;5.55;;;;;;;;;;10311972;28;20056;-63
2021/09/09 08:11:10;;;;;;;71.10;11.77;;;;;;;;;;10288762;28;20084;-64
2021/09/09 08:16:08;;;;;;;28.30;6.15;;;;;;;;;;10288638;28;20049;-64
2021/09/09 08:21:08;;;;;;;32.22;8.07;;;;;;;;;;10287985;28;20081;-64
2021/09/09 08:26:06;;;;;;;9.35;4.03;;;;;;;;;;10290747;28;20041;-65
2021/09/09 08:31:04;;;;;;;18.42;4.68;;;;;;;;;;10284919;28;20051;-63
2021/09/09 08:36:03;;;;;;;8.73;4.28;;;;;;;;;;10281626;28;20037;-63
2021/09/09 08:41:03;;;;;;;10.20;4.38;;;;;;;;;;10281028;28;20466;-63
2021/09/09 08:46:03;;;;;;;11.70;3.88;;;;;;;;;;10280903;28;20045;-63
2021/09/09 08:51:01;;;;;;;5.97;3.50;;;;;;;;;;10280729;28;20041;-64
2021/09/09 08:56:00;;;;;;;15.23;6.18;;;;;;;;;;10280926;28;20045;-63
2021/09/09 09:01:06;;;;;;;11.70;4.32;;;;;;;;;;10280755;28;20076;-63
2021/09/09 09:06:05;;;;;;;9.82;4.78;;;;;;;;;;10280241;28;20072;-64
2021/09/09 09:11:03;;;;;;;22.45;7.50;;;;;;;;;;10280477;28;20102;-63
2021/09/09 09:16:02;;;;;;;15.68;6.90;;;;;;;;;;10279937;28;20045;-62
2021/09/09 09:21:01;;;;;;;15.63;7.78;;;;;;;;;;10279485;28;20091;-63
2021/09/09 09:26:02;;;;;;;10.45;5.05;;;;;;;;;;10280055;28;20049;-63
2021/09/09 09:31:05;;;;;;;7.90;4.10;;;;;;;;;;10279570;28;20418;-63
2021/09/09 09:36:13;;;;;;;8.70;3.47;;;;;;;;;;10279058;28;20045;-64
2021/09/09 09:41:12;;;;;;;10.10;3.78;;;;;;;;;;10278826;28;20091;-64
2021/09/09 09:46:11;;;;;;;9.65;2.88;;;;;;;;;;10279050;28;20433;-63
2021/09/09 09:51:09;;;;;;;14.15;3.58;;;;;;;;;;10278932;28;20052;-63
2021/09/09 09:56:09;;;;;;;7.00;3.00;;;;;;;;;;10278895;28;20049;-63
2021/09/09 10:01:07;;;;;;;10.13;2.85;;;;;;;;;;10278046;28;20455;-64
2021/09/09 10:06:06;;;;;;;8.95;3.55;;;;;;;;;;10277823;28;20048;-64
2021/09/09 10:11:04;;;;;;;6.70;2.92;;;;;;;;;;10277893;28;20095;-64
2021/09/09 10:16:05;;;;;;;4.82;3.25;;;;;;;;;;10277788;28;20410;-64
2021/09/09 10:21:03;;;;;;;10.30;4.47;;;;;;;;;;10277303;28;20099;-64
2021/09/09 10:26:02;;;;;;;8.93;3.67;;;;;;;;;;10277444;28;20077;-64
2021/09/09 10:31:01;;;;;;;7.55;3.10;;;;;;;;;;10272883;28;20450;-64
2021/09/09 10:36:02;;;;;;;5.97;2.70;;;;;;;;;;10273274;28;20079;-64
2021/09/09 10:41:02;;;;;;;7.43;2.95;;;;;;;;;;10275791;28;20084;-64
2021/09/09 10:46:01;;;;;;;8.93;3.17;;;;;;;;;;10276898;28;20067;-64
2021/09/09 10:51:01;;;;;;;10.85;3.63;;;;;;;;;;10276177;28;20045;-62
2021/09/09 10:56:06;;;;;;;9.00;3.35;;;;;;;;;;10275356;28;20114;-63
2021/09/09 11:01:06;;;;;;;6.80;2.75;;;;;;;;;;10276082;28;20076;-63
2021/09/09 11:06:07;;;;;;;5.18;3.00;;;;;;;;;;10274486;28;20498;-63
2021/09/09 11:11:06;;;;;;;6.28;2.63;;;;;;;;;;10275757;28;20041;-63
2021/09/09 11:16:17;;;;;;;10.05;3.15;;;;;;;;;;10275486;28;20072;-63
2021/09/09 11:21:19;;;;;;;11.80;4.93;;;;;;;;;;10276055;28;20045;-63
2021/09/09 11:26:18;;;;;;;9.70;3.03;;;;;;;;;;10275945;28;20446;-63
2021/09/09 11:31:18;;;;;;;7.38;4.30;;;;;;;;;;10275382;28;20041;-63
2021/09/09 11:36:18;;;;;;;5.47;2.92;;;;;;;;;;10275658;28;20107;-63
2021/09/09 11:41:18;;;;;;;5.82;2.88;;;;;;;;;;10275655;28;20477;-64
2021/09/09 11:46:28;;;;;;;3.67;2.55;;;;;;;;;;10276766;28;20052;-64
2021/09/09 11:51:35;;;;;;;6.72;2.30;;;;;;;;;;10275194;28;20525;-64
2021/09/09 11:56:34;;;;;;;4.85;3.00;;;;;;;;;;10275385;28;20056;-64
2021/09/09 12:01:33;;;;;;;5.60;2.50;;;;;;;;;;10274506;28;20092;-64
2021/09/09 12:06:32;;;;;;;6.30;3.15;;;;;;;;;;10279430;28;20045;-64
2021/09/09 12:11:33;;;;;;;6.13;3.30;;;;;;;;;;10283568;28;20049;-63
2021/09/09 12:16:35;;;;;;;7.50;3.55;;;;;;;;;;10282403;28;20048;-63
2021/09/09 12:21:34;;;;;;;6.07;2.92;;;;;;;;;;10282431;28;20099;-63
2021/09/09 12:26:35;;;;;;;11.23;3.95;;;;;;;;;;10282147;28;20079;-63
2021/09/09 12:31:34;;;;;;;12.35;3.67;;;;;;;;;;10281522;28;20037;-63
2021/09/09 12:36:38;;;;;;;8.15;3.90;;;;;;;;;;10281419;28;20041;-64
2021/09/09 12:41:38;;;;;;;12.10;4.93;;;;;;;;;;10282139;28;20107;-64
2021/09/09 12:46:41;;;;;;;11.40;3.92;;;;;;;;;;10281175;28;20422;-64
2021/09/09 12:51:40;;;;;;;6.53;2.83;;;;;;;;;;10281269;28;20423;-64
2021/09/09 12:56:39;;;;;;;5.95;2.88;;;;;;;;;;10280602;28;20045;-64
2021/09/09 13:01:38;;;;;;;8.30;3.72;;;;;;;;;;10280468;28;20095;-64
2021/09/09 13:06:38;;;;;;;13.73;4.07;;;;;;;;;;10280354;28;20072;-64
2021/09/09 13:11:37;;;;;;;15.15;4.30;;;;;;;;;;10280194;28;20439;-64
2021/09/09 13:16:38;;;;;;;3.80;3.08;;;;;;;;;;10279362;28;20080;-64
2021/09/09 13:21:37;;;;;;;7.82;4.28;;;;;;;;;;10279690;28;20477;-64
2021/09/09 13:26:35;;;;;;;14.70;4.47;;;;;;;;;;10279354;28;20064;-64
2021/09/09 13:31:34;;;;;;;13.82;5.32;;;;;;;;;;10280159;28;20056;-64
2021/09/09 13:36:34;;;;;;;12.27;3.40;;;;;;;;;;10279278;28;20059;-64
2021/09/09 13:41:32;;;;;;;11.00;2.65;;;;;;;;;;10278676;28;20084;-63
2021/09/09 13:46:31;;;;;;;9.55;4.30;;;;;;;;;;10278614;28;20135;-64
2021/09/09 13:51:31;;;;;;;9.75;5.78;;;;;;;;;;10278654;28;20044;-64
2021/09/09 13:56:31;;;;;;;21.00;5.18;;;;;;;;;;10278931;28;20052;-64
2021/09/09 14:01:30;;;;;;;8.95;3.70;;;;;;;;;;10278556;28;20406;-63
2021/09/09 14:06:29;;;;;;;6.85;3.20;;;;;;;;;;10277828;28;20044;-64
2021/09/09 14:11:28;;;;;;;6.28;2.70;;;;;;;;;;10278180;28;20081;-63
2021/09/09 14:16:28;;;;;;;15.10;3.72;;;;;;;;;;10277694;28;20041;-64
2021/09/09 14:21:26;;;;;;;7.63;3.85;;;;;;;;;;10277780;28;20107;-64
2021/09/09 14:26:24;;;;;;;15.52;6.88;;;;;;;;;;10277250;28;20033;-64
2021/09/09 14:31:23;;;;;;;9.13;4.82;;;;;;;;;;10277123;28;20391;-64
2021/09/09 14:36:23;;;;;;;7.18;4.03;;;;;;;;;;10277096;28;20446;-64
2021/09/09 14:41:21;;;;;;;14.10;4.43;;;;;;;;;;10276446;28;20095;-64
2021/09/09 14:46:19;;;;;;;12.07;5.38;;;;;;;;;;10276857;28;20045;-64
2021/09/09 14:51:19;;;;;;;12.57;4.97;;;;;;;;;;10276328;28;20055;-64
2021/09/09 14:56:18;;;;;;;19.20;5.13;;;;;;;;;;10276149;28;20041;-64
2021/09/09 15:01:17;;;;;;;17.35;5.38;;;;;;;;;;10275641;28;20115;-63
2021/09/09 15:06:15;;;;;;;8.98;3.20;;;;;;;;;;10275842;28;20041;-63
2021/09/09 15:11:14;;;;;;;8.35;4.05;;;;;;;;;;10276236;28;20103;-63
2021/09/09 15:16:13;;;;;;;9.98;4.18;;;;;;;;;;10290316;28;20041;-62
2021/09/09 15:21:12;;;;;;;13.10;3.90;;;;;;;;;;10294168;28;20045;-63
2021/09/09 15:26:10;;;;;;;10.02;3.90;;;;;;;;;;10276297;28;20084;-63
2021/09/09 15:31:08;;;;;;;11.40;3.45;;;;;;;;;;10275545;28;20418;-63
2021/09/09 15:36:08;;;;;;;6.03;3.67;;;;;;;;;;10275639;28;20045;-63
2021/09/09 15:41:08;;;;;;;10.38;3.80;;;;;;;;;;10279864;28;20037;-63
2021/09/09 15:46:07;;;;;;;9.90;3.67;;;;;;;;;;10307406;28;20048;-64
2021/09/09 15:51:05;;;;;;;11.07;3.22;;;;;;;;;;10295965;28;20056;-63
2021/09/09 15:56:05;;;;;;;8.50;3.88;;;;;;;;;;10283489;28;20490;-64
2021/09/09 16:01:03;;;;;;;10.35;4.53;;;;;;;;;;10282873;28;20048;-64
2021/09/09 16:06:02;;;;;;;20.45;4.60;;;;;;;;;;10282448;28;20049;-64
2021/09/09 16:11:00;;;;;;;12.30;4.28;;;;;;;;;;10282837;28;20049;-64
2021/09/09 16:16:00;;;;;;;20.75;11.30;;;;;;;;;;10282367;28;20055;-64
2021/09/09 16:20:58;;;;;;;17.27;6.78;;;;;;;;;;10282462;28;20041;-63
2021/09/09 16:25:57;;;;;;;7.15;3.95;;;;;;;;;;10281883;28;20068;-64
2021/09/09 16:30:55;;;;;;;12.05;3.25;;;;;;;;;;10281711;28;20048;-64
2021/09/09 16:35:55;;;;;;;10.90;3.55;;;;;;;;;;10281522;28;20498;-64
2021/09/09 16:40:53;;;;;;;13.07;3.50;;;;;;;;;;10281250;28;20048;-64
2021/09/09 16:45:52;;;;;;;7.60;2.60;;;;;;;;;;10281030;28;20104;-64
2021/09/09 16:50:50;;;;;;;7.60;2.95;;;;;;;;;;10279551;28;20442;-64
2021/09/09 16:55:54;;;;;;;8.60;2.88;;;;;;;;;;10281148;28;20053;-64
2021/09/09 17:00:53;;;;;;;6.47;3.88;;;;;;;;;;10280690;28;20096;-65
2021/09/09 17:05:51;;;;;;;7.18;2.80;;;;;;;;;;10280063;28;20084;-65
2021/09/09 17:10:50;;;;;;;8.85;2.75;;;;;;;;;;10280331;28;20044;-64
2021/09/09 17:15:49;;;;;;;9.05;2.83;;;;;;;;;;10279980;28;20041;-63
2021/09/09 17:20:50;;;;;;;4.45;1.88;;;;;;;;;;10279785;28;20446;-64
2021/09/09 17:25:49;;;;;;;3.42;2.03;;;;;;;;;;10280218;28;20080;-63
2021/09/09 17:30:47;;;;;;;3.80;2.00;;;;;;;;;;10279426;28;20041;-63
2021/09/09 17:35:51;;;;;;;8.82;2.38;;;;;;;;;;10278968;28;20498;-64
2021/09/09 17:40:58;;;;;;;7.53;3.05;;;;;;;;;;10279673;28;20053;-63
2021/09/09 17:46:01;;;;;;;8.10;2.30;;;;;;;;;;10277631;28;20080;-63
2021/09/09 17:51:01;;;;;;;4.45;1.95;;;;;;;;;;10278655;28;20080;-64
2021/09/09 17:56:00;;;;;;;9.50;1.88;;;;;;;;;;10278447;28;20069;-64
2021/09/09 18:00:58;;;;;;;10.18;3.05;;;;;;;;;;10278735;28;20383;-64
2021/09/09 18:05:57;;;;;;;3.60;1.90;;;;;;;;;;10277453;28;20481;-65
2021/09/09 18:10:56;;;;;;;7.35;1.70;;;;;;;;;;10277762;28;20049;-65
2021/09/09 18:15:54;;;;;;;10.02;2.08;;;;;;;;;;10278053;28;20513;-63
2021/09/09 18:20:54;;;;;;;5.05;2.35;;;;;;;;;;10278080;28;20063;-63
2021/09/09 18:25:52;;;;;;;2.95;1.75;;;;;;;;;;10277082;28;20084;-63
2021/09/09 18:30:53;;;;;;;5.60;1.90;;;;;;;;;;10276650;28;20065;-64
2021/09/09 18:35:51;;;;;;;4.20;2.00;;;;;;;;;;10276744;28;20060;-64
2021/09/09 18:40:49;;;;;;;5.72;1.60;;;;;;;;;;10276709;28;20079;-64
2021/09/09 18:45:48;;;;;;;10.15;2.53;;;;;;;;;;10276597;28;20073;-63
2021/09/09 18:50:49;;;;;;;7.15;2.33;;;;;;;;;;10276602;28;20052;-64
2021/09/09 18:55:48;;;;;;;8.25;2.38;;;;;;;;;;10313524;28;20048;-63
2021/09/09 19:00:47;;;;;;;5.60;1.80;;;;;;;;;;10276449;28;20430;-65
2021/09/09 19:05:46;;;;;;;6.28;2.95;;;;;;;;;;10276094;28;20076;-64
2021/09/09 19:10:47;;;;;;;3.58;1.90;;;;;;;;;;10275321;28;21136;-64
2021/09/09 19:15:48;;;;;;;6.72;2.38;;;;;;;;;;10306909;28;20075;-64
2021/09/09 19:20:46;;;;;;;5.82;2.03;;;;;;;;;;10338810;28;20056;-64
2021/09/09 19:25:45;;;;;;;8.35;2.00;;;;;;;;;;10326657;28;20053;-64
2021/09/09 19:30:44;;;;;;;9.90;4.00;;;;;;;;;;10316685;28;20082;-64
2021/09/09 19:35:43;;;;;;;10.60;4.82;;;;;;;;;;10316312;28;20071;-64
2021/09/09 19:40:43;;;;;;;7.05;2.47;;;;;;;;;;10316020;28;20059;-65
2021/09/09 19:45:41;;;;;;;7.15;2.35;;;;;;;;;;10315829;28;20454;-64
2021/09/09 19:50:41;;;;;;;4.00;1.73;;;;;;;;;;10315708;28;20072;-64
2021/09/09 19:55:40;;;;;;;14.55;2.10;;;;;;;;;;10315423;28;20079;-64
2021/09/09 20:00:38;;;;;;;4.47;1.92;;;;;;;;;;10315379;28;20071;-64
2021/09/09 20:05:37;;;;;;;4.90;2.00;;;;;;;;;;10315337;28;20087;-63
2021/09/09 20:10:37;;;;;;;4.72;2.33;;;;;;;;;;10315406;28;20422;-64
2021/09/09 20:15:36;;;;;;;5.32;1.95;;;;;;;;;;10315713;28;20076;-64
2021/09/09 20:20:35;;;;;;;8.55;2.00;;;;;;;;;;10316145;28;20067;-64
2021/09/09 20:25:33;;;;;;;3.40;2.20;;;;;;;;;;10316913;28;20534;-64
2021/09/09 20:30:34;;;;;;;2.97;1.75;;;;;;;;;;10322182;28;20437;-64
2021/09/09 20:35:32;;;;;;;5.88;2.15;;;;;;;;;;10322787;28;20045;-64
2021/09/09 20:40:30;;;;;;;6.00;2.00;;;;;;;;;;10322543;28;20033;-64
2021/09/09 20:45:29;;;;;;;11.35;2.80;;;;;;;;;;10322197;28;20076;-64
2021/09/09 20:50:28;;;;;;;3.65;2.17;;;;;;;;;;10322088;28;20048;-64
2021/09/09 20:55:27;;;;;;;5.25;2.17;;;;;;;;;;10322149;28;20045;-64
2021/09/09 21:00:26;;;;;;;6.38;1.90;;;;;;;;;;10321633;28;20052;-64
2021/09/09 21:05:24;;;;;;;6.07;2.00;;;;;;;;;;10321387;28;20091;-63
2021/09/09 21:10:24;;;;;;;12.00;2.42;;;;;;;;;;10322008;28;20087;-63
2021/09/09 21:15:22;;;;;;;6.22;1.85;;;;;;;;;;10321570;28;20048;-64
2021/09/09 21:20:21;;;;;;;4.57;1.98;;;;;;;;;;10321662;28;20052;-63
2021/09/09 21:25:20;;;;;;;9.30;2.45;;;;;;;;;;10321107;28;20579;-64
2021/09/09 21:30:20;;;;;;;3.95;2.47;;;;;;;;;;10321157;28;20064;-64
2021/09/09 21:35:18;;;;;;;7.43;1.95;;;;;;;;;;10321130;28;20048;-64
2021/09/09 21:40:17;;;;;;;7.22;2.00;;;;;;;;;;10319990;28;20044;-62
2021/09/09 21:45:15;;;;;;;8.10;2.60;;;;;;;;;;10320479;28;20072;-65
2021/09/09 21:50:15;;;;;;;8.63;2.65;;;;;;;;;;10320860;28;20045;-65
2021/09/09 21:55:13;;;;;;;7.13;2.25;;;;;;;;;;10320076;28;20056;-65
2021/09/09 22:00:13;;;;;;;4.45;2.00;;;;;;;;;;10320028;28;20049;-65
2021/09/09 22:05:11;;;;;;;6.38;2.25;;;;;;;;;;10318864;28;20084;-65
2021/09/09 22:10:12;;;;;;;5.10;2.28;;;;;;;;;;10319948;28;20529;-64
2021/09/09 22:15:10;;;;;;;8.15;2.42;;;;;;;;;;10319422;28;20056;-65
2021/09/09 22:20:09;;;;;;;4.90;2.08;;;;;;;;;;10319154;28;20049;-64
2021/09/09 22:25:08;;;;;;;5.75;2.50;;;;;;;;;;10319449;28;20080;-65
2021/09/09 22:30:08;;;;;;;8.23;2.40;;;;;;;;;;10328777;28;20052;-63
2021/09/09 22:35:07;;;;;;;5.68;2.15;;;;;;;;;;10349001;28;20079;-64
2021/09/09 22:40:06;;;;;;;9.52;2.65;;;;;;;;;;10318771;28;20044;-64
2021/09/09 22:45:05;;;;;;;7.00;1.95;;;;;;;;;;10317930;28;20076;-64
2021/09/09 22:50:05;;;;;;;4.60;2.65;;;;;;;;;;10320230;28;20045;-67
2021/09/09 22:55:04;;;;;;;5.75;2.50;;;;;;;;;;10318897;28;20055;-65
2021/09/09 23:00:03;;;;;;;9.23;2.75;;;;;;;;;;10354707;28;20043;-65
2021/09/09 23:05:01;;;;;;;6.30;2.28;;;;;;;;;;10325368;28;20052;-64
2021/09/09 23:10:02;;;;;;;5.78;2.30;;;;;;;;;;10317892;28;20079;-62
2021/09/09 23:15:00;;;;;;;5.50;3.20;;;;;;;;;;10316536;28;20048;-64
2021/09/09 23:19:58;;;;;;;7.90;2.97;;;;;;;;;;10317726;28;20138;-65
2021/09/09 23:24:57;;;;;;;3.67;2.78;;;;;;;;;;10317228;28;20470;-64
2021/09/09 23:29:56;;;;;;;8.02;2.80;;;;;;;;;;10317306;28;20045;-64
2021/09/09 23:34:55;;;;;;;4.65;2.13;;;;;;;;;;10317116;28;20044;-64
2021/09/09 23:39:53;;;;;;;9.43;2.55;;;;;;;;;;10317253;28;20052;-64
2021/09/09 23:44:51;;;;;;;6.80;2.03;;;;;;;;;;10317229;28;20529;-64
2021/09/09 23:49:51;;;;;;;6.47;2.30;;;;;;;;;;10315875;28;20070;-64
2021/09/09 23:54:49;;;;;;;10.05;2.72;;;;;;;;;;10314880;28;20063;-64
2021/09/09 23:59:48;;;;;;;5.38;2.53;;;;;;;;;;10317024;28;20441;-63
